Time;durP1;ratioP1;P1;durP2;ratioP2;P2;SDS_P1;SDS_P2;PMS_P1;PMS_P2;Temp;Humidity;BMP_temperature;BMP_pressure;BME280_temperature;BME280_humidity;BME280_pressure;Samples;Min_cycle;Max_cycle;Signal;HPM_P1;HPM_P2
2023/11/09 00:00:20;;;;;;;4.00;1.90;;;;;;;;;;2613666;54;20429;-74
2023/11/09 00:02:46;;;;;;;3.70;2.60;;;;;;;;;;2614243;39;20813;-74
2023/11/09 00:05:13;;;;;;;3.63;2.03;;;;;;;;;;2613227;47;20466;-74
2023/11/09 00:07:39;;;;;;;4.60;2.60;;;;;;;;;;2613753;54;20467;-74
2023/11/09 00:10:06;;;;;;;6.33;3.07;;;;;;;;;;2613599;54;20419;-75
2023/11/09 00:12:33;;;;;;;4.93;2.10;;;;;;;;;;2613039;54;20404;-75
2023/11/09 00:14:59;;;;;;;2.97;1.90;;;;;;;;;;2614256;54;20404;-75
2023/11/09 00:17:25;;;;;;;2.90;2.13;;;;;;;;;;2613123;49;20503;-75
2023/11/09 00:19:51;;;;;;;2.80;2.20;;;;;;;;;;2613947;39;20833;-76
2023/11/09 00:22:19;;;;;;;1.90;1.30;;;;;;;;;;2612810;54;20427;-74
2023/11/09 00:24:47;;;;;;;5.50;2.70;;;;;;;;;;2613731;54;20412;-75
2023/11/09 00:27:19;;;;;;;4.23;1.80;;;;;;;;;;2614294;46;20436;-75
2023/11/09 00:29:45;;;;;;;5.40;2.60;;;;;;;;;;2614198;39;20787;-75
2023/11/09 00:32:12;;;;;;;3.80;2.00;;;;;;;;;;2613617;54;20485;-73
2023/11/09 00:34:38;;;;;;;2.83;1.77;;;;;;;;;;2614088;39;20828;-74
2023/11/09 00:37:04;;;;;;;4.43;2.50;;;;;;;;;;2612958;54;20432;-75
2023/11/09 00:39:31;;;;;;;4.90;2.40;;;;;;;;;;2613674;54;20408;-74
2023/11/09 00:41:57;;;;;;;3.13;2.30;;;;;;;;;;2614183;54;20398;-75
2023/11/09 00:44:23;;;;;;;4.03;2.80;;;;;;;;;;2614244;39;20794;-74
2023/11/09 00:46:49;;;;;;;9.00;1.70;;;;;;;;;;2614524;54;20422;-75
2023/11/09 00:49:16;;;;;;;2.13;1.40;;;;;;;;;;2614300;54;20397;-75
2023/11/09 00:51:42;;;;;;;4.10;2.03;;;;;;;;;;2614065;54;20557;-75
2023/11/09 00:54:08;;;;;;;5.27;2.57;;;;;;;;;;2614415;54;21040;-75
2023/11/09 00:56:34;;;;;;;2.80;1.80;;;;;;;;;;2613968;54;20431;-74
2023/11/09 00:59:02;;;;;;;5.00;2.03;;;;;;;;;;2613676;47;20411;-74
2023/11/09 01:01:28;;;;;;;2.83;1.80;;;;;;;;;;2613949;39;20948;-75
2023/11/09 01:03:54;;;;;;;5.43;2.67;;;;;;;;;;2613849;39;20803;-75
2023/11/09 01:06:20;;;;;;;3.80;2.10;;;;;;;;;;2614158;54;20447;-74
2023/11/09 01:08:46;;;;;;;3.93;2.63;;;;;;;;;;2614458;54;20422;-75
2023/11/09 01:11:12;;;;;;;4.30;2.63;;;;;;;;;;2613606;54;21187;-75
2023/11/09 01:13:38;;;;;;;4.30;2.47;;;;;;;;;;2614381;31;20870;-73
2023/11/09 01:16:05;;;;;;;3.10;2.03;;;;;;;;;;2614346;54;20410;-74
2023/11/09 01:18:31;;;;;;;4.40;2.47;;;;;;;;;;2615005;54;20399;-75
2023/11/09 01:20:58;;;;;;;2.60;1.83;;;;;;;;;;2614436;54;20410;-74
2023/11/09 01:23:24;;;;;;;2.90;1.80;;;;;;;;;;2613354;47;20450;-74
2023/11/09 01:25:50;;;;;;;5.20;2.50;;;;;;;;;;2613400;54;20437;-75
2023/11/09 01:28:16;;;;;;;5.57;2.20;;;;;;;;;;2613928;47;20416;-74
2023/11/09 01:30:42;;;;;;;3.30;2.00;;;;;;;;;;2614288;46;20429;-74
2023/11/09 01:33:08;;;;;;;3.60;2.40;;;;;;;;;;2613994;47;20555;-74
2023/11/09 01:35:34;;;;;;;3.03;2.00;;;;;;;;;;2613657;54;20459;-75
2023/11/09 01:38:00;;;;;;;2.97;1.63;;;;;;;;;;2614560;54;20415;-74
2023/11/09 01:40:26;;;;;;;4.57;2.40;;;;;;;;;;2614494;54;20410;-74
2023/11/09 01:42:54;;;;;;;2.57;1.57;;;;;;;;;;2614113;54;20411;-74
2023/11/09 01:45:20;;;;;;;4.97;2.30;;;;;;;;;;2614053;46;20399;-74
2023/11/09 01:47:47;;;;;;;2.30;1.70;;;;;;;;;;2614462;31;20844;-74
2023/11/09 01:50:13;;;;;;;2.70;1.90;;;;;;;;;;2613443;54;20415;-74
2023/11/09 01:52:40;;;;;;;3.67;2.13;;;;;;;;;;2614228;54;20424;-75
2023/11/09 01:55:06;;;;;;;3.23;1.63;;;;;;;;;;2613680;47;21018;-75
2023/11/09 01:57:33;;;;;;;2.67;1.50;;;;;;;;;;2614544;54;20418;-74
2023/11/09 02:00:00;;;;;;;3.90;2.20;;;;;;;;;;2614028;54;21081;-73
2023/11/09 02:02:26;;;;;;;2.30;1.80;;;;;;;;;;2614095;54;20983;-74
2023/11/09 02:04:52;;;;;;;8.40;2.23;;;;;;;;;;2614569;39;20951;-74
2023/11/09 02:07:19;;;;;;;4.73;2.50;;;;;;;;;;2613675;46;20476;-74
2023/11/09 02:09:46;;;;;;;6.30;3.10;;;;;;;;;;2615028;54;20950;-74
2023/11/09 02:12:12;;;;;;;4.50;1.63;;;;;;;;;;2614058;54;20545;-74
2023/11/09 02:14:40;;;;;;;2.30;1.70;;;;;;;;;;2614811;54;20999;-73
2023/11/09 02:17:06;;;;;;;3.80;1.87;;;;;;;;;;2613935;54;20434;-74
2023/11/09 02:19:32;;;;;;;4.53;2.00;;;;;;;;;;2613959;54;20438;-74
2023/11/09 02:21:59;;;;;;;4.80;2.10;;;;;;;;;;2614818;54;21061;-75
2023/11/09 02:24:26;;;;;;;3.07;2.70;;;;;;;;;;2613653;46;21012;-75
2023/11/09 02:26:53;;;;;;;3.80;2.00;;;;;;;;;;2614324;54;20438;-73
2023/11/09 02:29:22;;;;;;;3.93;2.30;;;;;;;;;;2614460;54;20423;-74
2023/11/09 02:31:48;;;;;;;4.50;2.33;;;;;;;;;;2613907;54;20548;-74
2023/11/09 02:34:17;;;;;;;3.90;1.97;;;;;;;;;;2614275;54;20414;-74
2023/11/09 02:36:43;;;;;;;3.93;1.70;;;;;;;;;;2613747;47;20415;-73
2023/11/09 02:39:12;;;;;;;4.20;2.20;;;;;;;;;;2613831;54;21180;-73
2023/11/09 02:41:38;;;;;;;3.43;1.80;;;;;;;;;;2613937;54;21055;-73
2023/11/09 02:44:04;;;;;;;3.20;1.83;;;;;;;;;;2614237;54;20922;-73
2023/11/09 02:46:30;;;;;;;3.63;1.80;;;;;;;;;;2614446;54;20922;-73
2023/11/09 02:48:57;;;;;;;3.07;1.93;;;;;;;;;;2614768;54;20962;-73
2023/11/09 02:51:23;;;;;;;2.93;1.90;;;;;;;;;;2614010;54;20431;-73
2023/11/09 02:53:49;;;;;;;3.40;1.90;;;;;;;;;;2614137;39;20864;-73
2023/11/09 02:56:15;;;;;;;4.20;2.13;;;;;;;;;;2614248;54;20438;-73
2023/11/09 02:58:42;;;;;;;3.00;2.00;;;;;;;;;;2614653;31;20891;-72
2023/11/09 03:01:08;;;;;;;3.60;2.23;;;;;;;;;;2613911;54;20422;-73
2023/11/09 03:03:34;;;;;;;2.20;1.53;;;;;;;;;;2614086;54;20470;-75
2023/11/09 03:06:00;;;;;;;2.47;1.47;;;;;;;;;;2613636;54;20450;-74
2023/11/09 03:08:31;;;;;;;3.90;2.10;;;;;;;;;;2614003;54;20966;-74
2023/11/09 03:10:57;;;;;;;4.70;2.00;;;;;;;;;;2614026;54;20419;-74
2023/11/09 03:13:24;;;;;;;7.57;2.27;;;;;;;;;;2614352;54;20450;-75
2023/11/09 03:15:50;;;;;;;2.40;1.60;;;;;;;;;;2615291;39;20486;-74
2023/11/09 03:18:16;;;;;;;5.40;1.70;;;;;;;;;;2614118;54;20431;-74
2023/11/09 03:20:44;;;;;;;2.97;1.90;;;;;;;;;;2613532;47;20404;-72
2023/11/09 03:23:10;;;;;;;4.67;2.23;;;;;;;;;;2614110;54;20391;-73
2023/11/09 03:25:38;;;;;;;4.30;1.73;;;;;;;;;;2613853;54;20453;-74
2023/11/09 03:28:05;;;;;;;4.63;2.13;;;;;;;;;;2613358;54;20406;-74
2023/11/09 03:30:31;;;;;;;2.77;1.30;;;;;;;;;;2613551;47;20445;-73
2023/11/09 03:32:57;;;;;;;3.87;2.07;;;;;;;;;;2613921;54;20506;-74
2023/11/09 03:35:23;;;;;;;2.47;1.50;;;;;;;;;;2613472;54;20404;-74
2023/11/09 03:37:49;;;;;;;2.57;1.30;;;;;;;;;;2613725;54;20972;-73
2023/11/09 03:40:15;;;;;;;3.50;1.73;;;;;;;;;;2613693;54;20399;-73
2023/11/09 03:42:41;;;;;;;2.60;1.70;;;;;;;;;;2613092;54;20400;-74
2023/11/09 03:45:08;;;;;;;2.40;1.77;;;;;;;;;;2614022;54;20432;-74
2023/11/09 03:47:34;;;;;;;3.17;2.27;;;;;;;;;;2615145;31;20805;-74
2023/11/09 03:50:01;;;;;;;2.43;1.87;;;;;;;;;;2614096;54;20427;-73
2023/11/09 03:52:27;;;;;;;4.53;2.17;;;;;;;;;;2613787;54;20437;-73
2023/11/09 03:54:56;;;;;;;2.07;1.53;;;;;;;;;;2614359;54;20392;-74
2023/11/09 03:57:22;;;;;;;2.90;1.93;;;;;;;;;;2613677;54;20405;-73
2023/11/09 03:59:49;;;;;;;4.93;2.33;;;;;;;;;;2614084;31;21045;-74
2023/11/09 04:02:15;;;;;;;6.17;1.90;;;;;;;;;;2613159;49;20443;-74
2023/11/09 04:04:41;;;;;;;2.60;1.80;;;;;;;;;;2613740;54;20431;-74
2023/11/09 04:07:07;;;;;;;1.80;1.23;;;;;;;;;;2613668;54;20414;-75
2023/11/09 04:09:34;;;;;;;3.77;1.53;;;;;;;;;;2613112;54;21038;-74
2023/11/09 04:12:00;;;;;;;2.00;1.33;;;;;;;;;;2613962;54;20423;-75
2023/11/09 04:14:27;;;;;;;2.70;1.60;;;;;;;;;;2613849;54;20498;-75
2023/11/09 04:16:53;;;;;;;2.43;1.50;;;;;;;;;;2614824;54;20403;-74
2023/11/09 04:19:20;;;;;;;2.63;1.57;;;;;;;;;;2614272;54;20434;-75
2023/11/09 04:21:49;;;;;;;3.43;2.00;;;;;;;;;;2614102;54;20415;-75
2023/11/09 04:24:15;;;;;;;2.30;1.33;;;;;;;;;;2614808;46;20896;-74
2023/11/09 04:26:42;;;;;;;3.40;2.10;;;;;;;;;;2614706;54;20941;-75
2023/11/09 04:29:11;;;;;;;2.70;1.97;;;;;;;;;;2615307;54;20391;-73
2023/11/09 04:31:41;;;;;;;3.70;1.60;;;;;;;;;;2613983;39;20917;-75
2023/11/09 04:34:08;;;;;;;4.40;1.73;;;;;;;;;;2615504;54;20918;-74
2023/11/09 04:36:44;;;;;;;2.60;1.90;;;;;;;;;;2614051;50;20525;-74
2023/11/09 04:39:10;;;;;;;2.60;1.20;;;;;;;;;;2614725;39;20787;-74
2023/11/09 04:41:37;;;;;;;2.57;1.77;;;;;;;;;;2613626;47;20427;-74
2023/11/09 04:44:04;;;;;;;5.13;1.50;;;;;;;;;;2615088;39;20833;-74
2023/11/09 04:46:33;;;;;;;3.37;1.90;;;;;;;;;;2613901;54;20406;-74
2023/11/09 04:49:06;;;;;;;2.23;1.60;;;;;;;;;;2614807;54;20453;-74
2023/11/09 04:51:32;;;;;;;1.60;1.00;;;;;;;;;;2614705;39;20820;-74
2023/11/09 04:54:16;;;;;;;2.30;1.37;;;;;;;;;;2614645;39;20855;-74
2023/11/09 04:56:53;;;;;;;2.10;1.40;;;;;;;;;;2614529;54;20415;-74
2023/11/09 05:07:27;;;;;;;2.20;1.10;;;;;;;;;;2614668;39;20888;-74
2023/11/09 05:09:53;;;;;;;2.47;1.50;;;;;;;;;;2614287;54;20419;-74
2023/11/09 05:12:20;;;;;;;2.50;1.47;;;;;;;;;;2614800;54;20523;-77
2023/11/09 05:14:46;;;;;;;2.13;1.30;;;;;;;;;;2614765;54;20535;-78
2023/11/09 05:17:13;;;;;;;2.67;1.70;;;;;;;;;;2615229;54;20407;-78
2023/11/09 05:19:41;;;;;;;2.57;1.40;;;;;;;;;;2614962;46;20897;-78
2023/11/09 05:22:09;;;;;;;1.57;1.00;;;;;;;;;;2614760;54;20406;-78
2023/11/09 05:24:40;;;;;;;3.50;1.97;;;;;;;;;;2614144;54;21051;-78
2023/11/09 05:27:07;;;;;;;1.50;0.70;;;;;;;;;;2614420;47;20478;-79
2023/11/09 05:29:33;;;;;;;2.73;0.97;;;;;;;;;;2615117;54;21116;-78
2023/11/09 05:31:59;;;;;;;2.53;1.40;;;;;;;;;;2614731;54;20519;-76
2023/11/09 05:34:27;;;;;;;1.90;1.10;;;;;;;;;;2615012;54;20447;-78
2023/11/09 05:36:53;;;;;;;3.67;1.30;;;;;;;;;;2615026;54;20482;-79
2023/11/09 05:39:20;;;;;;;2.63;1.30;;;;;;;;;;2614188;54;20415;-77
2023/11/09 05:41:47;;;;;;;2.73;1.57;;;;;;;;;;2614146;54;20571;-78
2023/11/09 05:44:13;;;;;;;2.40;1.20;;;;;;;;;;2613731;54;21209;-74
2023/11/09 05:46:39;;;;;;;4.00;1.80;;;;;;;;;;2614230;39;20794;-75
2023/11/09 05:49:05;;;;;;;2.87;1.70;;;;;;;;;;2614037;47;20405;-75
2023/11/09 05:51:32;;;;;;;3.50;1.50;;;;;;;;;;2612891;47;20396;-74
2023/11/09 05:53:58;;;;;;;2.40;1.80;;;;;;;;;;2613973;54;21016;-77
2023/11/09 05:56:25;;;;;;;2.57;1.43;;;;;;;;;;2614105;54;20453;-81
2023/11/09 05:58:53;;;;;;;2.37;1.43;;;;;;;;;;2612403;54;20465;-75
2023/11/09 06:01:19;;;;;;;2.60;1.03;;;;;;;;;;2612643;54;20474;-74
2023/11/09 06:03:45;;;;;;;3.70;2.30;;;;;;;;;;2613533;54;20921;-74
2023/11/09 06:06:11;;;;;;;4.00;1.77;;;;;;;;;;2613480;54;20431;-74
2023/11/09 06:08:37;;;;;;;2.30;1.30;;;;;;;;;;2613339;47;20420;-74
2023/11/09 06:11:10;;;;;;;2.13;1.30;;;;;;;;;;2613230;54;20427;-74
2023/11/09 06:13:36;;;;;;;1.97;1.17;;;;;;;;;;2612965;54;20464;-74
2023/11/09 06:16:03;;;;;;;3.53;1.53;;;;;;;;;;2613427;39;20767;-73
2023/11/09 06:18:29;;;;;;;2.00;1.50;;;;;;;;;;2613407;46;20447;-74
2023/11/09 06:20:57;;;;;;;1.63;0.83;;;;;;;;;;2614274;54;21322;-74
2023/11/09 06:23:23;;;;;;;2.57;1.20;;;;;;;;;;2613998;39;20980;-74
2023/11/09 06:25:51;;;;;;;2.67;1.70;;;;;;;;;;2613840;47;20439;-74
2023/11/09 06:28:18;;;;;;;1.70;1.10;;;;;;;;;;2613721;54;20417;-74
2023/11/09 06:30:45;;;;;;;2.43;1.30;;;;;;;;;;2614173;54;21008;-77
2023/11/09 06:33:11;;;;;;;2.17;1.50;;;;;;;;;;2613348;54;20453;-77
2023/11/09 06:35:40;;;;;;;2.30;1.50;;;;;;;;;;2613394;47;20477;-75
2023/11/09 06:38:08;;;;;;;1.80;1.30;;;;;;;;;;2614102;54;20438;-75
2023/11/09 06:40:34;;;;;;;2.90;1.50;;;;;;;;;;2612726;46;20446;-75
2023/11/09 06:43:00;;;;;;;4.00;1.80;;;;;;;;;;2613160;54;20420;-73
2023/11/09 06:45:26;;;;;;;2.20;1.20;;;;;;;;;;2614031;54;20917;-74
2023/11/09 06:47:52;;;;;;;2.03;1.27;;;;;;;;;;2612754;47;20450;-75
2023/11/09 06:50:19;;;;;;;2.10;1.60;;;;;;;;;;2612429;46;20444;-75
2023/11/09 06:52:45;;;;;;;2.67;1.60;;;;;;;;;;2612771;54;20494;-78
2023/11/09 06:55:15;;;;;;;5.13;1.57;;;;;;;;;;2614986;54;20977;-77
2023/11/09 06:57:41;;;;;;;2.03;1.20;;;;;;;;;;2615311;54;20472;-76
2023/11/09 07:00:10;;;;;;;2.37;1.63;;;;;;;;;;2613983;54;20422;-77
2023/11/09 07:02:37;;;;;;;1.90;1.30;;;;;;;;;;2615179;54;20427;-77
2023/11/09 07:05:05;;;;;;;2.23;1.60;;;;;;;;;;2614343;54;20562;-74
2023/11/09 07:07:31;;;;;;;2.93;1.50;;;;;;;;;;2614932;54;20452;-75
2023/11/09 07:09:58;;;;;;;4.10;2.00;;;;;;;;;;2613525;39;20930;-77
2023/11/09 07:12:26;;;;;;;2.27;1.50;;;;;;;;;;2615309;54;20950;-76
2023/11/09 07:14:52;;;;;;;2.03;1.13;;;;;;;;;;2615151;54;20416;-77
2023/11/09 07:17:22;;;;;;;2.20;1.30;;;;;;;;;;2615660;54;20407;-76
2023/11/09 07:19:48;;;;;;;1.70;1.40;;;;;;;;;;2616126;54;20499;-76
2023/11/09 07:22:16;;;;;;;2.07;1.27;;;;;;;;;;2616211;47;20442;-76
2023/11/09 07:24:43;;;;;;;2.53;1.40;;;;;;;;;;2615292;46;20452;-76
2023/11/09 07:27:10;;;;;;;2.27;1.50;;;;;;;;;;2616076;39;20799;-77
2023/11/09 07:29:37;;;;;;;2.20;1.20;;;;;;;;;;2615260;54;20454;-77
2023/11/09 07:32:03;;;;;;;3.47;1.73;;;;;;;;;;2615495;39;20496;-76
2023/11/09 07:34:30;;;;;;;2.70;1.37;;;;;;;;;;2615739;54;20418;-77
2023/11/09 07:37:01;;;;;;;2.20;1.43;;;;;;;;;;2615010;54;20430;-77
2023/11/09 07:39:27;;;;;;;2.20;1.43;;;;;;;;;;2615517;54;20416;-76
2023/11/09 07:42:04;;;;;;;3.97;1.60;;;;;;;;;;2614177;54;20408;-76
2023/11/09 07:44:30;;;;;;;2.50;1.80;;;;;;;;;;2614123;54;21067;-74
2023/11/09 07:46:59;;;;;;;3.93;1.60;;;;;;;;;;2614248;54;20412;-74
2023/11/09 07:49:30;;;;;;;3.00;1.60;;;;;;;;;;2615295;47;20434;-74
2023/11/09 07:51:58;;;;;;;2.83;1.30;;;;;;;;;;2615017;54;20403;-73
2023/11/09 07:54:24;;;;;;;2.50;1.30;;;;;;;;;;2615493;54;20397;-74
2023/11/09 07:56:50;;;;;;;3.10;2.20;;;;;;;;;;2614200;54;20402;-74
2023/11/09 07:59:16;;;;;;;3.73;2.30;;;;;;;;;;2614241;54;20426;-74
2023/11/09 08:01:43;;;;;;;2.57;1.20;;;;;;;;;;2614127;54;21426;-74
2023/11/09 08:04:09;;;;;;;6.07;1.90;;;;;;;;;;2616295;39;20831;-74
2023/11/09 08:06:38;;;;;;;2.20;1.47;;;;;;;;;;2614945;54;20559;-73
2023/11/09 08:09:09;;;;;;;2.23;1.30;;;;;;;;;;2615398;54;21079;-72
2023/11/09 08:11:35;;;;;;;1.80;1.27;;;;;;;;;;2614608;54;20429;-73
2023/11/09 08:14:02;;;;;;;1.90;1.57;;;;;;;;;;2613786;54;20412;-75
2023/11/09 08:16:28;;;;;;;2.13;1.30;;;;;;;;;;2614483;47;20419;-74
2023/11/09 08:18:55;;;;;;;2.37;1.63;;;;;;;;;;2615452;54;20972;-76
2023/11/09 08:21:25;;;;;;;3.20;1.77;;;;;;;;;;2614714;54;20827;-75
2023/11/09 08:23:51;;;;;;;2.57;1.60;;;;;;;;;;2614932;54;20388;-75
2023/11/09 08:26:17;;;;;;;4.23;2.17;;;;;;;;;;2614959;54;20402;-76
2023/11/09 08:28:43;;;;;;;3.83;1.50;;;;;;;;;;2615524;54;21175;-75
2023/11/09 08:31:09;;;;;;;2.63;1.60;;;;;;;;;;2614250;46;20431;-75
2023/11/09 08:33:35;;;;;;;3.07;1.60;;;;;;;;;;2614627;54;20407;-75
2023/11/09 08:36:04;;;;;;;2.63;1.93;;;;;;;;;;2615169;54;20555;-74
2023/11/09 08:38:33;;;;;;;3.30;1.90;;;;;;;;;;2615097;54;20386;-75
2023/11/09 08:41:05;;;;;;;4.37;2.17;;;;;;;;;;2615020;54;20426;-75
2023/11/09 08:43:33;;;;;;;7.13;1.60;;;;;;;;;;2615513;54;20398;-75
2023/11/09 08:46:02;;;;;;;8.07;2.20;;;;;;;;;;2615454;39;20810;-74
2023/11/09 08:48:32;;;;;;;4.77;1.80;;;;;;;;;;2614909;54;20423;-75
2023/11/09 08:51:01;;;;;;;5.93;2.60;;;;;;;;;;2614652;46;20429;-75
2023/11/09 08:53:31;;;;;;;3.37;1.67;;;;;;;;;;2614708;54;20551;-75
2023/11/09 08:56:00;;;;;;;4.07;2.23;;;;;;;;;;2614971;54;20485;-75
2023/11/09 08:58:27;;;;;;;3.63;2.47;;;;;;;;;;2614370;54;20494;-75
2023/11/09 09:00:53;;;;;;;4.60;2.33;;;;;;;;;;2612897;54;20418;-74
2023/11/09 09:03:23;;;;;;;4.00;2.03;;;;;;;;;;2613234;54;20474;-75
2023/11/09 09:05:49;;;;;;;7.00;2.50;;;;;;;;;;2613189;54;20451;-75
2023/11/09 09:08:15;;;;;;;2.70;2.03;;;;;;;;;;2614003;54;20387;-75
2023/11/09 09:10:41;;;;;;;4.93;1.70;;;;;;;;;;2614283;54;20462;-76
2023/11/09 09:13:07;;;;;;;4.20;2.43;;;;;;;;;;2614268;46;20561;-75
2023/11/09 09:15:33;;;;;;;4.97;2.03;;;;;;;;;;2614026;54;20416;-76
2023/11/09 09:18:00;;;;;;;3.90;2.70;;;;;;;;;;2613967;54;20432;-76
2023/11/09 09:20:27;;;;;;;10.30;3.30;;;;;;;;;;2613526;54;20462;-77
2023/11/09 09:22:55;;;;;;;9.90;2.57;;;;;;;;;;2614147;54;20424;-76
2023/11/09 09:25:22;;;;;;;3.23;2.30;;;;;;;;;;2613858;54;20416;-76
2023/11/09 09:27:49;;;;;;;6.30;2.40;;;;;;;;;;2614110;54;20432;-75
2023/11/09 09:30:21;;;;;;;8.60;3.17;;;;;;;;;;2613763;39;20777;-74
2023/11/09 09:32:47;;;;;;;12.50;2.83;;;;;;;;;;2613219;47;20412;-75
2023/11/09 09:35:14;;;;;;;5.37;3.50;;;;;;;;;;2613180;51;20428;-75
2023/11/09 09:37:40;;;;;;;9.80;2.90;;;;;;;;;;2613361;54;20427;-75
2023/11/09 09:40:19;;;;;;;4.23;2.53;;;;;;;;;;2613305;54;20407;-76
2023/11/09 09:42:50;;;;;;;6.10;2.57;;;;;;;;;;2614340;39;20792;-74
2023/11/09 09:45:32;;;;;;;9.90;3.00;;;;;;;;;;2614308;54;20420;-76
2023/11/09 09:47:59;;;;;;;6.33;3.60;;;;;;;;;;2614316;54;20434;-74
2023/11/09 09:50:26;;;;;;;6.50;2.70;;;;;;;;;;2613159;54;20444;-76
2023/11/09 09:52:56;;;;;;;4.40;2.83;;;;;;;;;;2612997;54;20427;-76
2023/11/09 09:55:24;;;;;;;6.13;2.73;;;;;;;;;;2612900;47;20420;-76
2023/11/09 09:57:53;;;;;;;8.40;3.20;;;;;;;;;;2614195;54;20402;-77
2023/11/09 10:00:23;;;;;;;7.40;3.17;;;;;;;;;;2613737;54;21000;-75
2023/11/09 10:02:50;;;;;;;4.73;2.50;;;;;;;;;;2611998;47;20407;-75
2023/11/09 10:05:17;;;;;;;5.03;3.53;;;;;;;;;;2614119;54;20443;-75
2023/11/09 10:08:13;;;;;;;7.07;2.87;;;;;;;;;;2613651;39;20842;-75
2023/11/09 10:10:40;;;;;;;8.50;2.80;;;;;;;;;;2613696;39;21202;-74
2023/11/09 10:13:09;;;;;;;4.77;2.67;;;;;;;;;;2613375;54;20427;-76
2023/11/09 10:15:35;;;;;;;8.57;3.10;;;;;;;;;;2613115;54;20420;-76
2023/11/09 10:18:02;;;;;;;7.60;3.30;;;;;;;;;;2614686;54;20399;-75
2023/11/09 10:20:28;;;;;;;5.07;3.03;;;;;;;;;;2613750;54;20435;-75
2023/11/09 10:22:58;;;;;;;6.10;2.70;;;;;;;;;;2612771;54;20438;-76
2023/11/09 10:25:30;;;;;;;5.13;2.90;;;;;;;;;;2613288;54;20474;-75
2023/11/09 10:28:00;;;;;;;11.10;3.17;;;;;;;;;;2612869;54;20411;-75
2023/11/09 10:30:48;;;;;;;7.03;3.10;;;;;;;;;;2613523;46;20471;-76
2023/11/09 10:33:18;;;;;;;8.27;4.43;;;;;;;;;;2614156;54;20408;-75
2023/11/09 10:35:47;;;;;;;11.03;3.00;;;;;;;;;;2616323;54;20403;-78
2023/11/09 10:38:20;;;;;;;16.10;5.90;;;;;;;;;;2614875;54;20555;-79
2023/11/09 10:40:47;;;;;;;10.87;3.67;;;;;;;;;;2616967;54;20438;-79
2023/11/09 10:43:14;;;;;;;4.10;3.20;;;;;;;;;;2616455;51;20935;-79
2023/11/09 10:45:52;;;;;;;5.17;2.53;;;;;;;;;;2614407;54;20444;-76
2023/11/09 10:48:18;;;;;;;9.07;3.93;;;;;;;;;;2613847;54;20411;-75
2023/11/09 10:50:47;;;;;;;10.10;3.80;;;;;;;;;;2612604;54;20423;-75
2023/11/09 10:53:18;;;;;;;9.33;3.30;;;;;;;;;;2614002;54;20404;-75
2023/11/09 10:55:59;;;;;;;14.23;3.43;;;;;;;;;;2613759;39;21245;-74
2023/11/09 10:58:26;;;;;;;6.07;2.60;;;;;;;;;;2612584;54;20423;-76
2023/11/09 11:00:58;;;;;;;6.40;3.37;;;;;;;;;;2612416;54;21011;-76
2023/11/09 11:03:35;;;;;;;12.87;3.63;;;;;;;;;;2613505;39;20806;-76
2023/11/09 11:06:04;;;;;;;7.77;3.90;;;;;;;;;;2614148;39;20964;-76
2023/11/09 11:08:35;;;;;;;9.10;2.67;;;;;;;;;;2612128;47;20422;-76
2023/11/09 11:11:02;;;;;;;11.83;4.43;;;;;;;;;;2613102;39;20951;-77
2023/11/09 11:13:29;;;;;;;8.83;2.87;;;;;;;;;;2612641;49;20439;-78
2023/11/09 11:16:16;;;;;;;6.23;3.10;;;;;;;;;;2612831;47;20416;-74
2023/11/09 11:18:57;;;;;;;8.33;4.30;;;;;;;;;;2612610;47;20407;-76
2023/11/09 11:21:29;;;;;;;9.80;3.87;;;;;;;;;;2613719;54;20404;-76
2023/11/09 11:23:56;;;;;;;8.97;3.33;;;;;;;;;;2613452;54;21008;-76
2023/11/09 11:26:23;;;;;;;5.87;3.30;;;;;;;;;;2613999;54;20420;-77
2023/11/09 11:28:49;;;;;;;5.40;3.33;;;;;;;;;;2614456;47;20440;-76
2023/11/09 11:31:20;;;;;;;9.67;3.13;;;;;;;;;;2612774;54;20525;-76
2023/11/09 11:33:49;;;;;;;7.50;3.17;;;;;;;;;;2613435;47;20422;-76
2023/11/09 11:36:41;;;;;;;9.90;3.60;;;;;;;;;;2614368;54;21118;-76
2023/11/09 11:39:24;;;;;;;9.10;3.30;;;;;;;;;;2613340;54;20453;-77
2023/11/09 11:41:52;;;;;;;6.47;3.23;;;;;;;;;;2613409;54;20450;-77
2023/11/09 11:44:18;;;;;;;12.67;3.67;;;;;;;;;;2613570;54;20419;-77
2023/11/09 11:46:46;;;;;;;9.30;2.40;;;;;;;;;;2613776;39;20793;-76
2023/11/09 11:49:14;;;;;;;7.63;3.07;;;;;;;;;;2614128;54;20992;-77
2023/11/09 11:51:42;;;;;;;15.10;3.40;;;;;;;;;;2614315;39;20892;-76
2023/11/09 11:54:08;;;;;;;14.67;4.43;;;;;;;;;;2613762;54;20933;-77
2023/11/09 11:56:37;;;;;;;7.73;3.00;;;;;;;;;;2615811;54;20950;-79
2023/11/09 11:59:09;;;;;;;9.83;2.93;;;;;;;;;;2616488;54;20408;-79
2023/11/09 12:01:40;;;;;;;10.93;3.20;;;;;;;;;;2615219;54;20466;-79
2023/11/09 12:04:08;;;;;;;8.60;3.67;;;;;;;;;;2616490;54;20434;-79
2023/11/09 12:06:35;;;;;;;11.73;4.40;;;;;;;;;;2616280;54;21527;-79
2023/11/09 12:09:07;;;;;;;11.33;3.20;;;;;;;;;;2616690;54;20915;-78
2023/11/09 12:11:40;;;;;;;8.30;3.70;;;;;;;;;;2615454;47;20415;-79
2023/11/09 12:14:09;;;;;;;8.93;3.57;;;;;;;;;;2615882;54;20426;-79
2023/11/09 12:16:44;;;;;;;11.00;4.13;;;;;;;;;;2616647;39;20526;-79
2023/11/09 12:19:14;;;;;;;7.50;4.13;;;;;;;;;;2615438;47;20442;-80
2023/11/09 12:21:40;;;;;;;9.70;4.03;;;;;;;;;;2615272;54;20443;-79
2023/11/09 12:24:12;;;;;;;13.90;4.03;;;;;;;;;;2615360;47;20428;-80
2023/11/09 12:26:38;;;;;;;9.00;4.43;;;;;;;;;;2613965;54;20415;-77
2023/11/09 12:29:06;;;;;;;8.57;4.40;;;;;;;;;;2614136;54;20396;-77
2023/11/09 12:31:32;;;;;;;7.53;3.50;;;;;;;;;;2612891;54;20424;-76
2023/11/09 12:34:13;;;;;;;7.20;2.57;;;;;;;;;;2613258;54;20422;-76
2023/11/09 12:36:41;;;;;;;7.80;3.57;;;;;;;;;;2613934;54;20414;-77
2023/11/09 12:39:28;;;;;;;6.43;3.70;;;;;;;;;;2614001;54;20411;-76
2023/11/09 12:42:05;;;;;;;7.97;3.83;;;;;;;;;;2612782;54;20388;-76
2023/11/09 12:44:34;;;;;;;7.23;2.80;;;;;;;;;;2614414;54;20391;-77
2023/11/09 12:47:11;;;;;;;5.93;3.00;;;;;;;;;;2614573;54;20403;-78
2023/11/09 12:49:40;;;;;;;7.33;4.17;;;;;;;;;;2613395;51;20391;-76
2023/11/09 12:52:07;;;;;;;12.70;3.37;;;;;;;;;;2614407;31;20825;-77
2023/11/09 12:54:34;;;;;;;6.20;3.83;;;;;;;;;;2613738;50;20407;-77
2023/11/09 12:57:05;;;;;;;2.93;2.50;;;;;;;;;;2614266;54;20416;-76
2023/11/09 12:59:31;;;;;;;22.80;3.70;;;;;;;;;;2614849;54;20400;-77
2023/11/09 13:02:14;;;;;;;5.93;3.07;;;;;;;;;;2611705;47;20423;-76
2023/11/09 13:04:46;;;;;;;7.93;3.67;;;;;;;;;;2613517;39;20779;-76
2023/11/09 13:07:13;;;;;;;5.43;2.67;;;;;;;;;;2614044;54;20450;-74
2023/11/09 13:09:48;;;;;;;5.93;3.63;;;;;;;;;;2614442;54;20403;-75
2023/11/09 13:12:28;;;;;;;3.90;2.80;;;;;;;;;;2613454;46;20419;-74
2023/11/09 13:17:47;;;;;;;11.70;3.90;;;;;;;;;;2614828;54;20404;-75
2023/11/09 13:20:25;;;;;;;6.90;4.30;;;;;;;;;;2613963;54;20946;-76
2023/11/09 13:22:51;;;;;;;5.80;2.70;;;;;;;;;;2613307;54;20506;-75
2023/11/09 13:25:22;;;;;;;10.00;3.33;;;;;;;;;;2614536;54;20392;-75
2023/11/09 13:27:48;;;;;;;5.10;2.47;;;;;;;;;;2613583;54;20503;-76
2023/11/09 13:30:17;;;;;;;6.93;3.70;;;;;;;;;;2613898;54;20427;-74
2023/11/09 13:32:43;;;;;;;10.70;4.10;;;;;;;;;;2613487;47;20427;-75
2023/11/09 13:37:59;;;;;;;5.80;3.30;;;;;;;;;;2612782;54;20403;-76
2023/11/09 13:43:08;;;;;;;9.40;3.87;;;;;;;;;;2612442;54;20425;-76
2023/11/09 13:45:35;;;;;;;6.30;4.27;;;;;;;;;;2612810;39;20897;-77
2023/11/09 13:48:21;;;;;;;4.30;3.70;;;;;;;;;;2612814;54;20426;-77
2023/11/09 13:50:48;;;;;;;8.43;4.20;;;;;;;;;;2612019;54;20455;-77
2023/11/09 13:58:37;;;;;;;7.47;3.37;;;;;;;;;;2612559;54;20536;-77
2023/11/09 14:01:03;;;;;;;12.07;4.70;;;;;;;;;;2612374;54;20428;-75
2023/11/09 14:03:31;;;;;;;12.40;3.60;;;;;;;;;;2611902;54;20455;-76
2023/11/09 14:06:18;;;;;;;7.30;3.60;;;;;;;;;;2612893;39;20965;-76
2023/11/09 14:08:44;;;;;;;6.90;3.97;;;;;;;;;;2611929;47;20560;-77
2023/11/09 14:11:11;;;;;;;9.40;3.93;;;;;;;;;;2612332;54;21028;-77
2023/11/09 14:13:46;;;;;;;7.33;4.37;;;;;;;;;;2612850;47;20531;-76
2023/11/09 14:16:23;;;;;;;13.37;5.20;;;;;;;;;;2614168;54;20532;-76
2023/11/09 14:19:01;;;;;;;11.77;4.30;;;;;;;;;;2613011;47;20426;-76
2023/11/09 14:21:36;;;;;;;11.90;4.13;;;;;;;;;;2613601;54;20387;-76
2023/11/09 14:24:05;;;;;;;9.67;4.00;;;;;;;;;;2614695;39;20790;-77
2023/11/09 14:26:31;;;;;;;9.43;3.80;;;;;;;;;;2614297;54;20427;-77
2023/11/09 14:29:08;;;;;;;11.13;3.60;;;;;;;;;;2614584;54;20423;-76
2023/11/09 14:31:38;;;;;;;11.60;4.57;;;;;;;;;;2613691;39;20859;-77
2023/11/09 14:34:12;;;;;;;5.33;4.20;;;;;;;;;;2614435;54;21094;-77
2023/11/09 14:36:42;;;;;;;8.77;4.03;;;;;;;;;;2613843;47;20419;-74
2023/11/09 14:39:28;;;;;;;8.37;4.30;;;;;;;;;;2613387;54;21000;-74
2023/11/09 14:41:55;;;;;;;11.77;4.50;;;;;;;;;;2613609;54;20739;-74
2023/11/09 14:44:21;;;;;;;12.30;3.97;;;;;;;;;;2613557;54;20427;-76
2023/11/09 14:46:53;;;;;;;4.57;3.40;;;;;;;;;;2614064;54;20427;-76
2023/11/09 14:49:19;;;;;;;10.50;4.50;;;;;;;;;;2612163;47;20419;-77
2023/11/09 14:51:47;;;;;;;8.40;4.10;;;;;;;;;;2613239;46;20428;-76
2023/11/09 14:54:15;;;;;;;14.77;5.50;;;;;;;;;;2614101;54;20395;-76
2023/11/09 14:56:42;;;;;;;7.77;4.80;;;;;;;;;;2614810;54;20416;-76
2023/11/09 14:59:11;;;;;;;13.03;4.90;;;;;;;;;;2613339;47;20424;-76
2023/11/09 15:01:37;;;;;;;7.60;3.80;;;;;;;;;;2613204;54;22647;-75
2023/11/09 15:04:05;;;;;;;9.83;4.43;;;;;;;;;;2614016;54;20438;-76
2023/11/09 15:06:32;;;;;;;9.50;4.07;;;;;;;;;;2613700;47;20447;-75
2023/11/09 15:09:18;;;;;;;8.73;4.30;;;;;;;;;;2613397;47;20419;-76